Time,TemperatureF,DewpointF,PressureIn,WindDirection,WindDirectionDegrees,WindSpeedMPH,WindSpeedGustMPH,Humidity,HourlyPrecipIn,Conditions,Clouds,dailyrainin,SoftwareType,DateUTC
2013-06-20 00:02:00,75.0,63.0,29.85,SSE,160,7.0,13.0,66,0.00,,,0.00,,2013-06-20 05:02:00,
2013-06-20 00:12:00,75.0,63.0,29.85,SSE,156,7.0,13.0,67,0.00,,,0.00,,2013-06-20 05:12:00,
2013-06-20 00:22:00,75.0,63.0,29.85,SSE,156,7.0,13.0,67,0.00,,,0.00,,2013-06-20 05:22:00,
2013-06-20 00:33:00,75.0,63.0,29.85,SSE,156,7.0,13.0,67,0.00,,,0.00,,2013-06-20 05:33:00,
2013-06-20 00:44:00,74.0,63.0,29.84,SE,139,8.0,14.0,68,0.00,,,0.00,,2013-06-20 05:44:00,
2013-06-20 00:52:00,74.0,63.0,29.84,SE,139,8.0,14.0,68,0.00,,,0.00,,2013-06-20 05:52:00,
2013-06-20 01:02:00,74.0,64.0,29.84,SSE,154,8.0,13.0,70,0.00,,,0.00,,2013-06-20 06:02:00,
2013-06-20 01:11:00,74.0,64.0,29.85,SSE,167,7.0,13.0,70,0.00,,,0.00,,2013-06-20 06:11:00,
2013-06-20 01:22:00,73.0,63.0,29.85,SSE,155,7.0,14.0,71,0.00,,,0.00,,2013-06-20 06:22:00,
2013-06-20 01:33:00,73.0,63.0,29.85,SSE,155,7.0,14.0,71,0.00,,,0.00,,2013-06-20 06:33:00,
2013-06-20 01:43:00,73.0,63.0,29.85,SSE,155,7.0,14.0,71,0.00,,,0.00,,2013-06-20 06:43:00,
2013-06-20 01:53:00,73.0,64.0,29.85,SSE,167,8.0,15.0,73,0.00,,,0.00,,2013-06-20 06:53:00,
2013-06-20 02:01:00,73.0,64.0,29.85,SSE,167,8.0,15.0,73,0.00,,,0.00,,2013-06-20 07:01:00,
2013-06-20 02:12:00,72.0,63.0,29.85,South,169,7.0,14.0,74,0.00,,,0.00,,2013-06-20 07:12:00,
2013-06-20 02:22:00,72.0,63.0,29.85,South,170,8.0,14.0,74,0.00,,,0.00,,2013-06-20 07:22:00,
2013-06-20 02:34:00,72.0,64.0,29.85,SE,136,7.0,13.0,75,0.00,,,0.00,,2013-06-20 07:34:00,
2013-06-20 02:44:00,72.0,64.0,29.85,SE,136,7.0,13.0,75,0.00,,,0.00,,2013-06-20 07:44:00,
2013-06-20 02:52:00,72.0,64.0,29.85,SE,137,7.0,12.0,75,0.00,,,0.00,,2013-06-20 07:52:00,
2013-06-20 03:02:00,72.0,64.0,29.85,SSE,160,7.0,12.0,75,0.00,,,0.00,,2013-06-20 08:02:00,
2013-06-20 03:11:00,72.0,64.0,29.85,SSE,160,7.0,12.0,75,0.00,,,0.00,,2013-06-20 08:11:00,
2013-06-20 03:22:00,72.0,64.0,29.85,SSE,160,7.0,12.0,75,0.00,,,0.00,,2013-06-20 08:22:00,
2013-06-20 03:34:00,72.0,64.0,29.85,SSE,151,9.0,15.0,76,0.00,,,0.00,,2013-06-20 08:34:00,
2013-06-20 03:43:00,72.0,64.0,29.85,SSE,151,9.0,15.0,76,0.00,,,0.00,,2013-06-20 08:43:00,
2013-06-20 03:53:00,71.0,63.0,29.84,SE,144,8.0,14.0,76,0.00,,,0.00,,2013-06-20 08:53:00,
2013-06-20 04:02:00,71.0,63.0,29.84,SE,144,8.0,14.0,76,0.00,,,0.00,,2013-06-20 09:02:00,
2013-06-20 04:12:00,71.0,63.0,29.84,SE,144,8.0,14.0,76,0.00,,,0.00,,2013-06-20 09:12:00,
2013-06-20 04:22:00,71.0,63.0,29.85,SSE,157,7.0,14.0,76,0.00,,,0.00,,2013-06-20 09:22:00,
2013-06-20 04:33:00,71.0,63.0,29.85,SSE,156,7.0,11.0,77,0.00,,,0.00,,2013-06-20 09:33:00,
2013-06-20 04:43:00,71.0,63.0,29.85,SE,145,8.0,11.0,76,0.00,,,0.00,,2013-06-20 09:43:00,
2013-06-20 04:52:00,71.0,63.0,29.85,SE,142,8.0,15.0,76,0.00,,,0.00,,2013-06-20 09:52:00,
2013-06-20 05:01:00,71.0,63.0,29.85,SE,134,8.0,15.0,76,0.00,,,0.00,,2013-06-20 10:01:00,
2013-06-20 05:11:00,71.0,63.0,29.85,SE,134,8.0,15.0,76,0.00,,,0.00,,2013-06-20 10:11:00,
2013-06-20 05:22:00,70.0,62.0,29.84,SSE,148,7.0,12.0,77,0.00,,,0.00,,2013-06-20 10:22:00,
2013-06-20 05:34:00,70.0,62.0,29.84,SSE,148,7.0,12.0,77,0.00,,,0.00,,2013-06-20 10:34:00,
2013-06-20 05:43:00,70.0,62.0,29.84,SSE,148,7.0,12.0,77,0.00,,,0.00,,2013-06-20 10:43:00,
2013-06-20 05:53:00,70.0,62.0,29.83,SE,135,9.0,14.0,76,0.00,,,0.00,,2013-06-20 10:53:00,
2013-06-20 06:02:00,70.0,62.0,29.84,SE,142,8.0,13.0,77,0.00,,,0.00,,2013-06-20 11:02:00,
2013-06-20 06:12:00,70.0,62.0,29.84,SE,142,8.0,13.0,77,0.00,,,0.00,,2013-06-20 11:12:00,
2013-06-20 06:22:00,70.0,62.0,29.84,SE,142,8.0,13.0,77,0.00,,,0.00,,2013-06-20 11:22:00,
2013-06-20 06:34:00,70.0,62.0,29.84,SE,142,8.0,13.0,77,0.00,,,0.00,,2013-06-20 11:34:00,
2013-06-20 06:42:00,70.0,62.0,29.84,SE,136,8.0,12.0,77,0.00,,,0.00,,2013-06-20 11:42:00,
2013-06-20 06:53:00,70.0,62.0,29.84,SSE,167,8.0,13.0,76,0.00,,,0.00,,2013-06-20 11:53:00,
2013-06-20 07:02:00,70.0,62.0,29.84,SSE,167,8.0,13.0,76,0.00,,,0.00,,2013-06-20 12:02:00,
2013-06-20 07:11:00,71.0,63.0,29.84,SSE,162,8.0,15.0,75,0.00,,,0.00,,2013-06-20 12:11:00,
2013-06-20 07:22:00,71.0,63.0,29.84,SSE,162,8.0,15.0,75,0.00,,,0.00,,2013-06-20 12:22:00,
2013-06-20 07:34:00,71.0,63.0,29.84,SSE,162,8.0,15.0,75,0.00,,,0.00,,2013-06-20 12:34:00,
2013-06-20 07:43:00,72.0,63.0,29.85,SE,142,9.0,14.0,73,0.00,,,0.00,,2013-06-20 12:43:00,
2013-06-20 07:53:00,72.0,63.0,29.85,SE,142,9.0,14.0,73,0.00,,,0.00,,2013-06-20 12:53:00,
2013-06-20 08:02:00,72.0,63.0,29.85,SE,142,9.0,14.0,73,0.00,,,0.00,,2013-06-20 13:02:00,
2013-06-20 08:11:00,72.0,63.0,29.85,SE,142,9.0,14.0,73,0.00,,,0.00,,2013-06-20 13:11:00,
2013-06-20 08:22:00,72.0,63.0,29.85,SE,142,9.0,14.0,73,0.00,,,0.00,,2013-06-20 13:22:00,
2013-06-20 08:33:00,75.0,65.0,29.86,South,176,8.0,18.0,71,0.00,,,0.00,,2013-06-20 13:33:00,
2013-06-20 08:42:00,76.0,65.0,29.85,South,190,8.0,16.0,70,0.00,,,0.00,,2013-06-20 13:42:00,
2013-06-20 08:53:00,76.0,65.0,29.85,South,190,8.0,16.0,70,0.00,,,0.00,,2013-06-20 13:53:00,
2013-06-20 09:02:00,77.0,66.0,29.86,SSW,205,6.0,11.0,69,0.00,,,0.00,,2013-06-20 14:02:00,
2013-06-20 09:11:00,77.0,66.0,29.86,SSW,205,6.0,11.0,69,0.00,,,0.00,,2013-06-20 14:11:00,
2013-06-20 09:22:00,78.0,66.0,29.86,SSE,153,8.0,15.0,67,0.00,,,0.00,,2013-06-20 14:22:00,
2013-06-20 09:32:00,79.0,67.0,29.85,SSE,156,10.0,15.0,66,0.00,,,0.00,,2013-06-20 14:32:00,
2013-06-20 09:42:00,79.0,66.0,29.85,SSE,150,9.0,16.0,65,0.00,,,0.00,,2013-06-20 14:42:00,
2013-06-20 09:53:00,79.0,66.0,29.85,SSE,150,9.0,16.0,65,0.00,,,0.00,,2013-06-20 14:53:00,
2013-06-20 10:02:00,79.0,66.0,29.85,SSE,150,9.0,16.0,65,0.00,,,0.00,,2013-06-20 15:02:00,
2013-06-20 10:11:00,79.0,66.0,29.85,SSE,150,9.0,16.0,65,0.00,,,0.00,,2013-06-20 15:11:00,
2013-06-20 10:22:00,79.0,66.0,29.85,SSE,150,9.0,16.0,65,0.00,,,0.00,,2013-06-20 15:22:00,
2013-06-20 10:33:00,82.0,67.0,29.83,South,191,10.0,20.0,61,0.00,,,0.00,,2013-06-20 15:33:00,
2013-06-20 10:43:00,82.0,66.0,29.83,South,186,10.0,20.0,59,0.00,,,0.00,,2013-06-20 15:43:00,
2013-06-20 10:53:00,82.0,67.0,29.83,SSW,198,11.0,18.0,60,0.00,,,0.00,,2013-06-20 15:53:00,
2013-06-20 11:01:00,83.0,67.0,29.83,SSE,163,11.0,19.0,58,0.00,,,0.00,,2013-06-20 16:01:00,
2013-06-20 11:12:00,83.0,67.0,29.83,SSE,163,11.0,19.0,58,0.00,,,0.00,,2013-06-20 16:12:00,
2013-06-20 11:22:00,83.0,66.0,29.83,SW,223,12.0,19.0,57,0.00,,,0.00,,2013-06-20 16:22:00,
2013-06-20 11:33:00,84.0,66.0,29.83,South,169,9.0,19.0,55,0.00,,,0.00,,2013-06-20 16:33:00,
2013-06-20 11:42:00,84.0,66.0,29.83,South,169,9.0,19.0,55,0.00,,,0.00,,2013-06-20 16:42:00,
2013-06-20 11:52:00,86.0,65.0,29.83,SW,230,0.0,0.0,49,0.00,,,0.00,,2013-06-20 16:52:00,
2013-06-20 12:02:00,86.0,65.0,29.83,SW,230,0.0,0.0,49,0.00,,,0.00,,2013-06-20 17:02:00,
2013-06-20 12:12:00,86.0,65.0,29.83,SW,230,0.0,0.0,49,0.00,,,0.00,,2013-06-20 17:12:00,
2013-06-20 12:22:00,86.0,65.0,29.83,SW,230,0.0,0.0,49,0.00,,,0.00,,2013-06-20 17:22:00,
2013-06-20 12:32:00,87.0,65.0,29.81,South,174,0.0,0.0,48,0.00,,,0.00,,2013-06-20 17:32:00,
2013-06-20 12:43:00,87.0,65.0,29.81,South,174,0.0,0.0,48,0.00,,,0.00,,2013-06-20 17:43:00,
2013-06-20 12:53:00,87.0,65.0,29.81,South,174,0.0,0.0,48,0.00,,,0.00,,2013-06-20 17:53:00,
2013-06-20 13:01:00,87.0,65.0,29.81,South,174,0.0,0.0,48,0.00,,,0.00,,2013-06-20 18:01:00,
2013-06-20 13:11:00,88.0,64.0,29.80,SSW,195,0.0,0.0,45,0.00,,,0.00,,2013-06-20 18:11:00,
2013-06-20 13:22:00,88.0,65.0,29.80,SE,143,0.0,0.0,46,0.00,,,0.00,,2013-06-20 18:22:00,
2013-06-20 13:33:00,88.0,65.0,29.80,SE,143,0.0,0.0,46,0.00,,,0.00,,2013-06-20 18:33:00,
2013-06-20 13:43:00,88.0,64.0,29.80,South,186,0.0,0.0,45,0.00,,,0.00,,2013-06-20 18:43:00,
2013-06-20 13:53:00,87.0,63.0,29.80,SSE,165,0.0,0.0,45,0.00,,,0.00,,2013-06-20 18:53:00,
2013-06-20 14:01:00,88.0,64.0,29.80,SSE,149,0.0,0.0,45,0.00,,,0.00,,2013-06-20 19:01:00,
2013-06-20 14:11:00,88.0,64.0,29.80,SSE,149,0.0,0.0,45,0.00,,,0.00,,2013-06-20 19:11:00,
2013-06-20 14:22:00,88.0,64.0,29.80,SSE,149,0.0,0.0,45,0.00,,,0.00,,2013-06-20 19:22:00,
2013-06-20 14:34:00,88.0,65.0,29.78,SSW,193,0.0,0.0,46,0.00,,,0.00,,2013-06-20 19:34:00,
2013-06-20 14:43:00,88.0,65.0,29.78,SSW,196,0.0,0.0,46,0.00,,,0.00,,2013-06-20 19:43:00,
2013-06-20 14:52:00,88.0,65.0,29.78,SSW,196,0.0,0.0,46,0.00,,,0.00,,2013-06-20 19:52:00,
2013-06-20 15:02:00,88.0,64.0,29.77,SSE,160,0.0,0.0,45,0.00,,,0.00,,2013-06-20 20:02:00,
2013-06-20 15:11:00,88.0,64.0,29.77,SSE,160,0.0,0.0,45,0.00,,,0.00,,2013-06-20 20:11:00,
2013-06-20 15:22:00,89.0,64.0,29.76,South,174,0.0,0.0,43,0.00,,,0.00,,2013-06-20 20:22:00,
2013-06-20 15:33:00,89.0,64.0,29.76,South,174,0.0,0.0,43,0.00,,,0.00,,2013-06-20 20:33:00,
2013-06-20 15:42:00,89.0,64.0,29.75,SSE,162,0.0,0.0,44,0.00,,,0.00,,2013-06-20 20:42:00,
2013-06-20 15:52:00,89.0,64.0,29.75,SSE,162,0.0,0.0,44,0.00,,,0.00,,2013-06-20 20:52:00,
2013-06-20 16:01:00,90.0,65.0,29.75,SSW,198,0.0,0.0,44,0.00,,,0.00,,2013-06-20 21:01:00,